sensor_id;sensor_type;location;lat;lon;timestamp;P1;durP1;ratioP1;P2;durP2;ratioP2
15679;SDS011;15488;48.114;11.532;2022-09-01T00:01:42;10.03;;;8.93;;
15679;SDS011;15488;48.114;11.532;2022-09-01T00:04:13;9.90;;;8.83;;
15679;SDS011;15488;48.114;11.532;2022-09-01T00:06:44;10.13;;;9.07;;
15679;SDS011;15488;48.114;11.532;2022-09-01T00:09:13;10.70;;;9.60;;
15679;SDS011;15488;48.114;11.532;2022-09-01T00:11:44;13.63;;;12.20;;
15679;SDS011;15488;48.114;11.532;2022-09-01T00:14:14;15.47;;;12.83;;
15679;SDS011;15488;48.114;11.532;2022-09-01T00:16:41;16.17;;;12.80;;
15679;SDS011;15488;48.114;11.532;2022-09-01T00:19:09;11.70;;;10.43;;
15679;SDS011;15488;48.114;11.532;2022-09-01T00:21:38;10.53;;;9.43;;
15679;SDS011;15488;48.114;11.532;2022-09-01T00:24:09;10.60;;;9.50;;
15679;SDS011;15488;48.114;11.532;2022-09-01T00:26:37;10.50;;;9.40;;
15679;SDS011;15488;48.114;11.532;2022-09-01T00:29:05;11.17;;;9.33;;
15679;SDS011;15488;48.114;11.532;2022-09-01T00:31:33;11.87;;;10.27;;
15679;SDS011;15488;48.114;11.532;2022-09-01T00:34:01;11.57;;;9.70;;
15679;SDS011;15488;48.114;11.532;2022-09-01T00:36:29;11.03;;;9.83;;
15679;SDS011;15488;48.114;11.532;2022-09-01T00:38:56;11.57;;;10.00;;
15679;SDS011;15488;48.114;11.532;2022-09-01T00:41:28;11.80;;;10.33;;
15679;SDS011;15488;48.114;11.532;2022-09-01T00:43:58;12.03;;;10.07;;
15679;SDS011;15488;48.114;11.532;2022-09-01T00:46:30;11.47;;;10.20;;
15679;SDS011;15488;48.114;11.532;2022-09-01T00:49:01;12.53;;;10.63;;
15679;SDS011;15488;48.114;11.532;2022-09-01T00:51:31;13.00;;;11.00;;
15679;SDS011;15488;48.114;11.532;2022-09-01T00:54:02;14.17;;;10.57;;
15679;SDS011;15488;48.114;11.532;2022-09-01T00:56:33;12.47;;;11.17;;
15679;SDS011;15488;48.114;11.532;2022-09-01T00:59:04;13.93;;;11.17;;
15679;SDS011;15488;48.114;11.532;2022-09-01T01:01:33;13.73;;;11.47;;
15679;SDS011;15488;48.114;11.532;2022-09-01T01:04:01;13.67;;;11.67;;
15679;SDS011;15488;48.114;11.532;2022-09-01T01:06:29;13.53;;;11.33;;
15679;SDS011;15488;48.114;11.532;2022-09-01T01:08:57;13.63;;;11.43;;
15679;SDS011;15488;48.114;11.532;2022-09-01T01:11:28;14.07;;;11.87;;
15679;SDS011;15488;48.114;11.532;2022-09-01T01:13:59;14.60;;;11.80;;
15679;SDS011;15488;48.114;11.532;2022-09-01T01:16:34;14.43;;;11.57;;
15679;SDS011;15488;48.114;11.532;2022-09-01T01:19:02;14.13;;;11.67;;
15679;SDS011;15488;48.114;11.532;2022-09-01T01:21:33;13.50;;;11.00;;
15679;SDS011;15488;48.114;11.532;2022-09-01T01:24:26;13.57;;;11.77;;
15679;SDS011;15488;48.114;11.532;2022-09-01T01:26:55;14.13;;;11.93;;
15679;SDS011;15488;48.114;11.532;2022-09-01T01:29:24;15.60;;;11.87;;
15679;SDS011;15488;48.114;11.532;2022-09-01T01:31:53;14.03;;;11.83;;
15679;SDS011;15488;48.114;11.532;2022-09-01T01:34:21;14.17;;;11.57;;
15679;SDS011;15488;48.114;11.532;2022-09-01T01:36:49;13.47;;;11.27;;
15679;SDS011;15488;48.114;11.532;2022-09-01T01:39:17;14.67;;;11.63;;
15679;SDS011;15488;48.114;11.532;2022-09-01T01:41:51;14.40;;;11.33;;
15679;SDS011;15488;48.114;11.532;2022-09-01T01:44:21;13.70;;;11.07;;
15679;SDS011;15488;48.114;11.532;2022-09-01T01:46:52;14.67;;;12.10;;
15679;SDS011;15488;48.114;11.532;2022-09-01T01:49:25;14.20;;;11.63;;
15679;SDS011;15488;48.114;11.532;2022-09-01T01:51:55;14.73;;;12.10;;
15679;SDS011;15488;48.114;11.532;2022-09-01T01:54:23;14.33;;;11.43;;
15679;SDS011;15488;48.114;11.532;2022-09-01T01:56:57;14.73;;;11.63;;
15679;SDS011;15488;48.114;11.532;2022-09-01T01:59:26;13.40;;;11.17;;
15679;SDS011;15488;48.114;11.532;2022-09-01T02:01:53;13.70;;;11.37;;
15679;SDS011;15488;48.114;11.532;2022-09-01T02:04:22;14.63;;;11.37;;
15679;SDS011;15488;48.114;11.532;2022-09-01T02:06:49;13.67;;;10.90;;
15679;SDS011;15488;48.114;11.532;2022-09-01T02:09:18;13.63;;;11.53;;
15679;SDS011;15488;48.114;11.532;2022-09-01T02:11:47;13.27;;;10.60;;
15679;SDS011;15488;48.114;11.532;2022-09-01T02:14:19;14.03;;;11.07;;
15679;SDS011;15488;48.114;11.532;2022-09-01T02:16:47;13.10;;;10.73;;
15679;SDS011;15488;48.114;11.532;2022-09-01T02:19:15;12.27;;;10.60;;
15679;SDS011;15488;48.114;11.532;2022-09-01T02:21:45;11.53;;;9.93;;
15679;SDS011;15488;48.114;11.532;2022-09-01T02:24:13;12.50;;;10.40;;
15679;SDS011;15488;48.114;11.532;2022-09-01T02:26:41;11.77;;;9.97;;
15679;SDS011;15488;48.114;11.532;2022-09-01T02:29:14;11.97;;;10.10;;
15679;SDS011;15488;48.114;11.532;2022-09-01T02:31:47;11.93;;;10.00;;
15679;SDS011;15488;48.114;11.532;2022-09-01T02:34:16;15.33;;;10.10;;
15679;SDS011;15488;48.114;11.532;2022-09-01T02:36:46;13.50;;;10.67;;
15679;SDS011;15488;48.114;11.532;2022-09-01T02:39:18;12.90;;;10.77;;
15679;SDS011;15488;48.114;11.532;2022-09-01T02:41:47;11.37;;;9.93;;
15679;SDS011;15488;48.114;11.532;2022-09-01T02:44:15;11.83;;;9.77;;
15679;SDS011;15488;48.114;11.532;2022-09-01T02:46:47;13.40;;;9.83;;
15679;SDS011;15488;48.114;11.532;2022-09-01T02:49:17;11.63;;;9.97;;
15679;SDS011;15488;48.114;11.532;2022-09-01T02:51:49;12.03;;;9.77;;
15679;SDS011;15488;48.114;11.532;2022-09-01T02:54:19;11.33;;;10.13;;
15679;SDS011;15488;48.114;11.532;2022-09-01T02:56:49;11.73;;;9.73;;
15679;SDS011;15488;48.114;11.532;2022-09-01T02:59:19;12.57;;;9.93;;
15679;SDS011;15488;48.114;11.532;2022-09-01T03:01:49;11.20;;;9.30;;
15679;SDS011;15488;48.114;11.532;2022-09-01T03:04:18;11.40;;;9.83;;
15679;SDS011;15488;48.114;11.532;2022-09-01T03:06:48;11.80;;;9.97;;
15679;SDS011;15488;48.114;11.532;2022-09-01T03:09:18;11.90;;;9.93;;
15679;SDS011;15488;48.114;11.532;2022-09-01T03:11:47;12.20;;;9.97;;
15679;SDS011;15488;48.114;11.532;2022-09-01T03:14:16;11.53;;;9.70;;
15679;SDS011;15488;48.114;11.532;2022-09-01T03:16:44;12.23;;;10.13;;
15679;SDS011;15488;48.114;11.532;2022-09-01T03:19:13;12.40;;;9.97;;
15679;SDS011;15488;48.114;11.532;2022-09-01T03:21:43;11.77;;;9.93;;
15679;SDS011;15488;48.114;11.532;2022-09-01T03:24:13;11.97;;;9.73;;
15679;SDS011;15488;48.114;11.532;2022-09-01T03:26:42;11.27;;;10.07;;
15679;SDS011;15488;48.114;11.532;2022-09-01T03:29:11;11.47;;;9.73;;
15679;SDS011;15488;48.114;11.532;2022-09-01T03:31:39;11.70;;;10.23;;
15679;SDS011;15488;48.114;11.532;2022-09-01T03:34:07;11.83;;;9.83;;
15679;SDS011;15488;48.114;11.532;2022-09-01T03:36:38;12.50;;;10.67;;
15679;SDS011;15488;48.114;11.532;2022-09-01T03:39:14;11.17;;;9.63;;
15679;SDS011;15488;48.114;11.532;2022-09-01T03:41:42;12.17;;;9.53;;
15679;SDS011;15488;48.114;11.532;2022-09-01T03:44:10;12.17;;;9.70;;
15679;SDS011;15488;48.114;11.532;2022-09-01T03:46:40;12.60;;;10.10;;
15679;SDS011;15488;48.114;11.532;2022-09-01T03:49:08;12.77;;;10.10;;
15679;SDS011;15488;48.114;11.532;2022-09-01T03:51:50;11.20;;;9.70;;
15679;SDS011;15488;48.114;11.532;2022-09-01T03:54:18;12.20;;;9.97;;
15679;SDS011;15488;48.114;11.532;2022-09-01T03:56:48;10.93;;;9.50;;
15679;SDS011;15488;48.114;11.532;2022-09-01T03:59:16;11.27;;;9.10;;
15679;SDS011;15488;48.114;11.532;2022-09-01T04:01:44;10.20;;;8.87;;
15679;SDS011;15488;48.114;11.532;2022-09-01T04:04:12;11.13;;;9.10;;
15679;SDS011;15488;48.114;11.532;2022-09-01T04:06:39;11.17;;;9.20;;
15679;SDS011;15488;48.114;11.532;2022-09-01T04:09:09;10.90;;;9.27;;
15679;SDS011;15488;48.114;11.532;2022-09-01T04:11:38;11.10;;;9.17;;
15679;SDS011;15488;48.114;11.532;2022-09-01T04:14:05;10.63;;;9.17;;
15679;SDS011;15488;48.114;11.532;2022-09-01T04:16:35;11.03;;;9.33;;
15679;SDS011;15488;48.114;11.532;2022-09-01T04:19:21;11.17;;;8.63;;
15679;SDS011;15488;48.114;11.532;2022-09-01T04:21:51;10.33;;;9.13;;
15679;SDS011;15488;48.114;11.532;2022-09-01T04:24:22;10.40;;;9.00;;
15679;SDS011;15488;48.114;11.532;2022-09-01T04:26:52;11.30;;;9.00;;
15679;SDS011;15488;48.114;11.532;2022-09-01T04:29:22;10.43;;;9.17;;
15679;SDS011;15488;48.114;11.532;2022-09-01T04:31:51;10.70;;;9.10;;
15679;SDS011;15488;48.114;11.532;2022-09-01T04:34:19;10.00;;;8.63;;
15679;SDS011;15488;48.114;11.532;2022-09-01T04:36:49;10.07;;;8.87;;
15679;SDS011;15488;48.114;11.532;2022-09-01T04:39:22;9.67;;;8.27;;
15679;SDS011;15488;48.114;11.532;2022-09-01T04:41:49;10.20;;;8.77;;
15679;SDS011;15488;48.114;11.532;2022-09-01T04:44:17;10.03;;;9.03;;
15679;SDS011;15488;48.114;11.532;2022-09-01T04:46:45;9.97;;;8.80;;
15679;SDS011;15488;48.114;11.532;2022-09-01T04:49:15;10.67;;;8.93;;
15679;SDS011;15488;48.114;11.532;2022-09-01T04:51:47;11.00;;;9.57;;
15679;SDS011;15488;48.114;11.532;2022-09-01T04:54:16;10.27;;;9.17;;
15679;SDS011;15488;48.114;11.532;2022-09-01T04:56:47;11.77;;;9.97;;
15679;SDS011;15488;48.114;11.532;2022-09-01T04:59:19;11.23;;;9.77;;
15679;SDS011;15488;48.114;11.532;2022-09-01T05:01:48;11.93;;;10.23;;
15679;SDS011;15488;48.114;11.532;2022-09-01T05:04:18;11.33;;;9.87;;
15679;SDS011;15488;48.114;11.532;2022-09-01T05:06:49;13.93;;;10.90;;
15679;SDS011;15488;48.114;11.532;2022-09-01T05:09:25;16.17;;;10.87;;
15679;SDS011;15488;48.114;11.532;2022-09-01T05:11:56;14.27;;;10.80;;
15679;SDS011;15488;48.114;11.532;2022-09-01T05:14:25;13.73;;;10.80;;
15679;SDS011;15488;48.114;11.532;2022-09-01T05:16:55;14.03;;;11.20;;
15679;SDS011;15488;48.114;11.532;2022-09-01T05:19:23;12.40;;;10.40;;
15679;SDS011;15488;48.114;11.532;2022-09-01T05:21:53;13.10;;;11.10;;
15679;SDS011;15488;48.114;11.532;2022-09-01T05:24:22;12.47;;;10.57;;
15679;SDS011;15488;48.114;11.532;2022-09-01T05:26:57;14.73;;;11.30;;
15679;SDS011;15488;48.114;11.532;2022-09-01T05:29:25;14.10;;;10.90;;
15679;SDS011;15488;48.114;11.532;2022-09-01T05:31:53;15.20;;;11.47;;
15679;SDS011;15488;48.114;11.532;2022-09-01T05:34:23;13.07;;;10.70;;
15679;SDS011;15488;48.114;11.532;2022-09-01T05:36:52;14.27;;;11.50;;
15679;SDS011;15488;48.114;11.532;2022-09-01T05:39:22;12.10;;;10.60;;
15679;SDS011;15488;48.114;11.532;2022-09-01T05:41:50;13.60;;;11.30;;
15679;SDS011;15488;48.114;11.532;2022-09-01T05:44:20;11.83;;;10.27;;
15679;SDS011;15488;48.114;11.532;2022-09-01T05:46:48;12.97;;;10.63;;
15679;SDS011;15488;48.114;11.532;2022-09-01T05:49:17;13.27;;;10.70;;
15679;SDS011;15488;48.114;11.532;2022-09-01T05:51:45;12.67;;;10.00;;
15679;SDS011;15488;48.114;11.532;2022-09-01T05:54:16;11.83;;;10.03;;
15679;SDS011;15488;48.114;11.532;2022-09-01T05:56:45;13.73;;;9.73;;
15679;SDS011;15488;48.114;11.532;2022-09-01T05:59:13;11.50;;;9.87;;
15679;SDS011;15488;48.114;11.532;2022-09-01T06:01:42;11.93;;;9.10;;
15679;SDS011;15488;48.114;11.532;2022-09-01T06:04:12;10.13;;;9.03;;
15679;SDS011;15488;48.114;11.532;2022-09-01T06:06:41;10.93;;;9.27;;
15679;SDS011;15488;48.114;11.532;2022-09-01T06:09:10;9.93;;;8.10;;
15679;SDS011;15488;48.114;11.532;2022-09-01T06:11:42;10.23;;;7.67;;
15679;SDS011;15488;48.114;11.532;2022-09-01T06:14:11;9.47;;;7.90;;
15679;SDS011;15488;48.114;11.532;2022-09-01T06:16:39;9.53;;;7.97;;
15679;SDS011;15488;48.114;11.532;2022-09-01T06:19:09;9.73;;;7.77;;
15679;SDS011;15488;48.114;11.532;2022-09-01T06:21:37;10.10;;;8.20;;
15679;SDS011;15488;48.114;11.532;2022-09-01T06:24:05;10.23;;;8.20;;
15679;SDS011;15488;48.114;11.532;2022-09-01T06:26:34;9.33;;;7.90;;
15679;SDS011;15488;48.114;11.532;2022-09-01T06:29:05;9.50;;;7.83;;
15679;SDS011;15488;48.114;11.532;2022-09-01T06:31:39;8.07;;;7.10;;
15679;SDS011;15488;48.114;11.532;2022-09-01T06:34:15;9.50;;;7.93;;
15679;SDS011;15488;48.114;11.532;2022-09-01T06:36:43;9.47;;;7.77;;
15679;SDS011;15488;48.114;11.532;2022-09-01T06:39:14;9.27;;;7.50;;
15679;SDS011;15488;48.114;11.532;2022-09-01T06:41:44;9.20;;;7.33;;
15679;SDS011;15488;48.114;11.532;2022-09-01T06:44:16;9.07;;;7.70;;
15679;SDS011;15488;48.114;11.532;2022-09-01T06:46:47;9.93;;;7.63;;
15679;SDS011;15488;48.114;11.532;2022-09-01T06:49:15;7.93;;;6.97;;
15679;SDS011;15488;48.114;11.532;2022-09-01T06:51:45;8.73;;;7.53;;
15679;SDS011;15488;48.114;11.532;2022-09-01T06:54:13;9.70;;;7.77;;
15679;SDS011;15488;48.114;11.532;2022-09-01T06:56:41;8.53;;;7.63;;
15679;SDS011;15488;48.114;11.532;2022-09-01T06:59:08;9.07;;;7.37;;
15679;SDS011;15488;48.114;11.532;2022-09-01T07:01:37;8.70;;;7.80;;
15679;SDS011;15488;48.114;11.532;2022-09-01T07:04:06;8.83;;;7.60;;
15679;SDS011;15488;48.114;11.532;2022-09-01T07:06:33;9.97;;;7.67;;
15679;SDS011;15488;48.114;11.532;2022-09-01T07:09:01;8.27;;;7.03;;
15679;SDS011;15488;48.114;11.532;2022-09-01T07:11:30;9.00;;;7.43;;
15679;SDS011;15488;48.114;11.532;2022-09-01T07:14:01;8.47;;;7.17;;
15679;SDS011;15488;48.114;11.532;2022-09-01T07:16:30;9.63;;;7.67;;
15679;SDS011;15488;48.114;11.532;2022-09-01T07:19:06;9.20;;;8.13;;
15679;SDS011;15488;48.114;11.532;2022-09-01T07:21:39;8.70;;;7.50;;
15679;SDS011;15488;48.114;11.532;2022-09-01T07:24:08;8.43;;;6.93;;
15679;SDS011;15488;48.114;11.532;2022-09-01T07:26:36;7.47;;;6.77;;
15679;SDS011;15488;48.114;11.532;2022-09-01T07:29:05;7.60;;;6.80;;
15679;SDS011;15488;48.114;11.532;2022-09-01T07:31:34;7.40;;;6.47;;
15679;SDS011;15488;48.114;11.532;2022-09-01T07:34:07;7.57;;;6.87;;
15679;SDS011;15488;48.114;11.532;2022-09-01T07:36:36;7.53;;;6.77;;
15679;SDS011;15488;48.114;11.532;2022-09-01T07:39:05;7.50;;;6.80;;
15679;SDS011;15488;48.114;11.532;2022-09-01T07:41:32;7.27;;;6.57;;
15679;SDS011;15488;48.114;11.532;2022-09-01T07:44:01;7.53;;;6.80;;
15679;SDS011;15488;48.114;11.532;2022-09-01T07:46:29;7.30;;;6.60;;
15679;SDS011;15488;48.114;11.532;2022-09-01T07:48:58;8.63;;;7.10;;
15679;SDS011;15488;48.114;11.532;2022-09-01T07:51:28;7.60;;;6.87;;
15679;SDS011;15488;48.114;11.532;2022-09-01T07:53:58;7.33;;;6.63;;
15679;SDS011;15488;48.114;11.532;2022-09-01T07:56:26;7.20;;;6.50;;
15679;SDS011;15488;48.114;11.532;2022-09-01T07:58:55;7.27;;;6.57;;
15679;SDS011;15488;48.114;11.532;2022-09-01T08:01:24;6.83;;;6.17;;
15679;SDS011;15488;48.114;11.532;2022-09-01T08:03:53;7.20;;;6.50;;
15679;SDS011;15488;48.114;11.532;2022-09-01T08:06:23;6.63;;;5.93;;
15679;SDS011;15488;48.114;11.532;2022-09-01T08:08:54;7.10;;;6.40;;
15679;SDS011;15488;48.114;11.532;2022-09-01T08:11:24;6.80;;;6.20;;
15679;SDS011;15488;48.114;11.532;2022-09-01T08:13:53;7.00;;;6.30;;
15679;SDS011;15488;48.114;11.532;2022-09-01T08:19:28;6.67;;;6.03;;
15679;SDS011;15488;48.114;11.532;2022-09-01T08:21:55;7.03;;;6.33;;
15679;SDS011;15488;48.114;11.532;2022-09-01T08:24:24;7.17;;;6.43;;
15679;SDS011;15488;48.114;11.532;2022-09-01T08:26:51;7.23;;;6.53;;
15679;SDS011;15488;48.114;11.532;2022-09-01T08:29:19;7.27;;;6.57;;
15679;SDS011;15488;48.114;11.532;2022-09-01T08:31:46;7.03;;;6.33;;
15679;SDS011;15488;48.114;11.532;2022-09-01T08:34:14;7.00;;;6.40;;
15679;SDS011;15488;48.114;11.532;2022-09-01T08:36:41;6.70;;;6.00;;
15679;SDS011;15488;48.114;11.532;2022-09-01T08:39:09;6.80;;;6.20;;
15679;SDS011;15488;48.114;11.532;2022-09-01T08:41:41;7.07;;;6.40;;
15679;SDS011;15488;48.114;11.532;2022-09-01T08:44:12;7.63;;;6.93;;
15679;SDS011;15488;48.114;11.532;2022-09-01T08:46:48;7.13;;;6.10;;
15679;SDS011;15488;48.114;11.532;2022-09-01T08:49:22;7.27;;;6.50;;
15679;SDS011;15488;48.114;11.532;2022-09-01T08:51:51;7.07;;;6.37;;
15679;SDS011;15488;48.114;11.532;2022-09-01T08:54:23;6.70;;;6.03;;
15679;SDS011;15488;48.114;11.532;2022-09-01T08:57:00;6.60;;;6.00;;
15679;SDS011;15488;48.114;11.532;2022-09-01T08:59:33;7.10;;;6.43;;
15679;SDS011;15488;48.114;11.532;2022-09-01T09:02:04;6.30;;;5.70;;
15679;SDS011;15488;48.114;11.532;2022-09-01T09:04:54;5.87;;;5.33;;
15679;SDS011;15488;48.114;11.532;2022-09-01T09:07:33;5.70;;;5.20;;
15679;SDS011;15488;48.114;11.532;2022-09-01T09:10:13;8.50;;;5.60;;
15679;SDS011;15488;48.114;11.532;2022-09-01T09:12:50;6.07;;;5.47;;
15679;SDS011;15488;48.114;11.532;2022-09-01T09:15:26;6.23;;;5.63;;
15679;SDS011;15488;48.114;11.532;2022-09-01T09:18:05;6.50;;;5.90;;
15679;SDS011;15488;48.114;11.532;2022-09-01T09:20:41;5.87;;;5.37;;
15679;SDS011;15488;48.114;11.532;2022-09-01T09:23:11;5.63;;;5.13;;
15679;SDS011;15488;48.114;11.532;2022-09-01T09:25:49;5.57;;;5.10;;
15679;SDS011;15488;48.114;11.532;2022-09-01T09:28:18;5.83;;;5.33;;
15679;SDS011;15488;48.114;11.532;2022-09-01T09:30:45;5.80;;;5.30;;
15679;SDS011;15488;48.114;11.532;2022-09-01T09:33:34;6.10;;;5.60;;
15679;SDS011;15488;48.114;11.532;2022-09-01T09:36:14;5.97;;;5.40;;
15679;SDS011;15488;48.114;11.532;2022-09-01T09:38:44;5.70;;;5.20;;
15679;SDS011;15488;48.114;11.532;2022-09-01T09:41:15;6.30;;;5.80;;
15679;SDS011;15488;48.114;11.532;2022-09-01T09:43:48;6.00;;;5.50;;
15679;SDS011;15488;48.114;11.532;2022-09-01T09:46:23;5.77;;;5.27;;
15679;SDS011;15488;48.114;11.532;2022-09-01T09:49:06;6.00;;;5.40;;
15679;SDS011;15488;48.114;11.532;2022-09-01T09:51:36;6.40;;;5.80;;
15679;SDS011;15488;48.114;11.532;2022-09-01T09:54:14;6.20;;;5.70;;
15679;SDS011;15488;48.114;11.532;2022-09-01T09:56:48;7.53;;;6.87;;
15679;SDS011;15488;48.114;11.532;2022-09-01T09:59:30;6.87;;;6.17;;
15679;SDS011;15488;48.114;11.532;2022-09-01T10:02:12;6.70;;;6.17;;
15679;SDS011;15488;48.114;11.532;2022-09-01T10:04:47;6.80;;;6.20;;
15679;SDS011;15488;48.114;11.532;2022-09-01T10:07:21;7.07;;;6.47;;
15679;SDS011;15488;48.114;11.532;2022-09-01T10:09:51;6.80;;;6.20;;
15679;SDS011;15488;48.114;11.532;2022-09-01T10:12:20;6.57;;;5.83;;
15679;SDS011;15488;48.114;11.532;2022-09-01T10:14:51;6.73;;;6.13;;
15679;SDS011;15488;48.114;11.532;2022-09-01T10:17:23;7.87;;;7.17;;
15679;SDS011;15488;48.114;11.532;2022-09-01T10:19:55;7.10;;;6.40;;
15679;SDS011;15488;48.114;11.532;2022-09-01T10:22:31;7.23;;;6.53;;
15679;SDS011;15488;48.114;11.532;2022-09-01T10:25:00;7.47;;;6.77;;
15679;SDS011;15488;48.114;11.532;2022-09-01T10:27:28;6.87;;;6.27;;
15679;SDS011;15488;48.114;11.532;2022-09-01T10:30:03;8.27;;;5.73;;
15679;SDS011;15488;48.114;11.532;2022-09-01T10:32:33;5.83;;;5.33;;
15679;SDS011;15488;48.114;11.532;2022-09-01T10:35:06;6.60;;;5.70;;
15679;SDS011;15488;48.114;11.532;2022-09-01T10:37:38;5.77;;;5.27;;
15679;SDS011;15488;48.114;11.532;2022-09-01T10:40:11;5.97;;;5.47;;
15679;SDS011;15488;48.114;11.532;2022-09-01T10:42:45;5.13;;;4.73;;
15679;SDS011;15488;48.114;11.532;2022-09-01T10:45:28;5.30;;;4.80;;
15679;SDS011;15488;48.114;11.532;2022-09-01T10:50:51;5.07;;;4.57;;
15679;SDS011;15488;48.114;11.532;2022-09-01T10:53:41;5.77;;;5.27;;
15679;SDS011;15488;48.114;11.532;2022-09-01T10:56:11;5.50;;;5.00;;
15679;SDS011;15488;48.114;11.532;2022-09-01T10:58:44;5.10;;;4.70;;
15679;SDS011;15488;48.114;11.532;2022-09-01T11:07:30;5.83;;;4.60;;
15679;SDS011;15488;48.114;11.532;2022-09-01T11:10:10;4.70;;;4.30;;
15679;SDS011;15488;48.114;11.532;2022-09-01T11:16:00;4.30;;;3.93;;
15679;SDS011;15488;48.114;11.532;2022-09-01T11:19:15;4.27;;;3.97;;
15679;SDS011;15488;48.114;11.532;2022-09-01T11:22:02;4.27;;;3.97;;
15679;SDS011;15488;48.114;11.532;2022-09-01T11:24:52;4.10;;;3.80;;
15679;SDS011;15488;48.114;11.532;2022-09-01T11:30:42;4.10;;;3.80;;
15679;SDS011;15488;48.114;11.532;2022-09-01T11:33:27;4.13;;;3.83;;
15679;SDS011;15488;48.114;11.532;2022-09-01T11:36:13;4.53;;;3.67;;
15679;SDS011;15488;48.114;11.532;2022-09-01T11:38:47;3.83;;;3.53;;
15679;SDS011;15488;48.114;11.532;2022-09-01T11:41:25;4.10;;;3.80;;
15679;SDS011;15488;48.114;11.532;2022-09-01T11:43:58;3.90;;;3.57;;
15679;SDS011;15488;48.114;11.532;2022-09-01T11:46:28;3.40;;;3.20;;
15679;SDS011;15488;48.114;11.532;2022-09-01T11:48:59;4.30;;;4.00;;
15679;SDS011;15488;48.114;11.532;2022-09-01T11:51:36;3.63;;;3.33;;
15679;SDS011;15488;48.114;11.532;2022-09-01T11:54:09;3.67;;;3.37;;
15679;SDS011;15488;48.114;11.532;2022-09-01T11:56:39;4.10;;;3.80;;
15679;SDS011;15488;48.114;11.532;2022-09-01T11:59:07;3.43;;;3.13;;
15679;SDS011;15488;48.114;11.532;2022-09-01T12:01:35;3.80;;;3.50;;
15679;SDS011;15488;48.114;11.532;2022-09-01T12:04:17;3.73;;;3.43;;
15679;SDS011;15488;48.114;11.532;2022-09-01T12:06:51;3.13;;;2.93;;
15679;SDS011;15488;48.114;11.532;2022-09-01T12:09:20;3.10;;;2.90;;
15679;SDS011;15488;48.114;11.532;2022-09-01T12:11:57;3.20;;;3.00;;
15679;SDS011;15488;48.114;11.532;2022-09-01T12:14:25;3.07;;;2.87;;
15679;SDS011;15488;48.114;11.532;2022-09-01T12:16:56;3.50;;;3.30;;
15679;SDS011;15488;48.114;11.532;2022-09-01T12:19:27;3.33;;;3.00;;
15679;SDS011;15488;48.114;11.532;2022-09-01T12:21:57;3.10;;;2.80;;
15679;SDS011;15488;48.114;11.532;2022-09-01T12:24:26;3.10;;;2.90;;
15679;SDS011;15488;48.114;11.532;2022-09-01T12:26:59;2.80;;;2.60;;
15679;SDS011;15488;48.114;11.532;2022-09-01T12:29:28;2.90;;;2.70;;
15679;SDS011;15488;48.114;11.532;2022-09-01T12:31:57;2.50;;;2.30;;
15679;SDS011;15488;48.114;11.532;2022-09-01T12:34:27;2.50;;;2.30;;
15679;SDS011;15488;48.114;11.532;2022-09-01T12:37:05;2.83;;;2.63;;
15679;SDS011;15488;48.114;11.532;2022-09-01T12:39:35;3.22;;;2.88;;
15679;SDS011;15488;48.114;11.532;2022-09-01T12:44:54;3.15;;;2.95;;
15679;SDS011;15488;48.114;11.532;2022-09-01T12:53:00;3.17;;;2.97;;
15679;SDS011;15488;48.114;11.532;2022-09-01T12:55:30;3.10;;;2.90;;
15679;SDS011;15488;48.114;11.532;2022-09-01T12:58:00;3.28;;;3.03;;
15679;SDS011;15488;48.114;11.532;2022-09-01T13:00:30;3.40;;;3.10;;
15679;SDS011;15488;48.114;11.532;2022-09-01T13:03:07;3.47;;;3.17;;
15679;SDS011;15488;48.114;11.532;2022-09-01T13:05:39;3.45;;;3.15;;
15679;SDS011;15488;48.114;11.532;2022-09-01T13:08:09;4.13;;;3.00;;
15679;SDS011;15488;48.114;11.532;2022-09-01T13:10:38;3.00;;;2.75;;
15679;SDS011;15488;48.114;11.532;2022-09-01T13:13:10;3.42;;;3.13;;
15679;SDS011;15488;48.114;11.532;2022-09-01T13:15:40;3.22;;;3.03;;
15679;SDS011;15488;48.114;11.532;2022-09-01T13:18:09;3.20;;;3.00;;
15679;SDS011;15488;48.114;11.532;2022-09-01T13:20:37;2.45;;;2.35;;
15679;SDS011;15488;48.114;11.532;2022-09-01T13:23:06;3.25;;;2.97;;
15679;SDS011;15488;48.114;11.532;2022-09-01T13:25:34;3.33;;;3.13;;
15679;SDS011;15488;48.114;11.532;2022-09-01T13:28:02;3.30;;;3.10;;
15679;SDS011;15488;48.114;11.532;2022-09-01T13:30:33;3.50;;;3.30;;
15679;SDS011;15488;48.114;11.532;2022-09-01T13:33:00;3.80;;;3.60;;
15679;SDS011;15488;48.114;11.532;2022-09-01T13:35:28;3.38;;;3.13;;
15679;SDS011;15488;48.114;11.532;2022-09-01T13:37:56;3.60;;;3.00;;
15679;SDS011;15488;48.114;11.532;2022-09-01T13:40:23;3.13;;;2.92;;
15679;SDS011;15488;48.114;11.532;2022-09-01T13:42:51;3.45;;;3.15;;
15679;SDS011;15488;48.114;11.532;2022-09-01T13:45:20;3.47;;;3.05;;
15679;SDS011;15488;48.114;11.532;2022-09-01T13:47:51;3.10;;;2.90;;
15679;SDS011;15488;48.114;11.532;2022-09-01T13:50:19;3.03;;;2.83;;
15679;SDS011;15488;48.114;11.532;2022-09-01T13:52:49;3.47;;;3.28;;
15679;SDS011;15488;48.114;11.532;2022-09-01T13:55:19;3.35;;;3.15;;
15679;SDS011;15488;48.114;11.532;2022-09-01T13:57:48;3.80;;;3.50;;
15679;SDS011;15488;48.114;11.532;2022-09-01T14:00:17;3.70;;;3.50;;
15679;SDS011;15488;48.114;11.532;2022-09-01T14:02:48;4.15;;;3.95;;
15679;SDS011;15488;48.114;11.532;2022-09-01T14:05:21;5.20;;;4.90;;
15679;SDS011;15488;48.114;11.532;2022-09-01T14:07:53;4.70;;;4.50;;
15679;SDS011;15488;48.114;11.532;2022-09-01T14:10:22;5.13;;;4.82;;
15679;SDS011;15488;48.114;11.532;2022-09-01T14:12:50;4.70;;;4.50;;
15679;SDS011;15488;48.114;11.532;2022-09-01T14:15:18;5.55;;;5.25;;
15679;SDS011;15488;48.114;11.532;2022-09-01T14:17:48;5.45;;;5.15;;
15679;SDS011;15488;48.114;11.532;2022-09-01T14:20:19;6.07;;;5.68;;
15679;SDS011;15488;48.114;11.532;2022-09-01T14:22:48;6.10;;;5.80;;
15679;SDS011;15488;48.114;11.532;2022-09-01T14:25:17;5.45;;;5.18;;
15679;SDS011;15488;48.114;11.532;2022-09-01T14:27:45;4.97;;;4.78;;
15679;SDS011;15488;48.114;11.532;2022-09-01T14:30:15;5.10;;;4.90;;
15679;SDS011;15488;48.114;11.532;2022-09-01T14:32:45;4.60;;;4.40;;
15679;SDS011;15488;48.114;11.532;2022-09-01T14:35:13;4.80;;;4.50;;
15679;SDS011;15488;48.114;11.532;2022-09-01T14:37:43;4.70;;;4.40;;
15679;SDS011;15488;48.114;11.532;2022-09-01T14:40:11;4.85;;;4.55;;
15679;SDS011;15488;48.114;11.532;2022-09-01T14:42:40;4.03;;;3.83;;
15679;SDS011;15488;48.114;11.532;2022-09-01T14:45:10;3.60;;;3.40;;
15679;SDS011;15488;48.114;11.532;2022-09-01T14:47:40;3.83;;;3.63;;
15679;SDS011;15488;48.114;11.532;2022-09-01T14:50:08;3.60;;;3.40;;
15679;SDS011;15488;48.114;11.532;2022-09-01T14:52:36;3.60;;;3.40;;
15679;SDS011;15488;48.114;11.532;2022-09-01T14:55:05;4.60;;;4.30;;
15679;SDS011;15488;48.114;11.532;2022-09-01T14:57:33;4.72;;;4.43;;
15679;SDS011;15488;48.114;11.532;2022-09-01T15:00:01;3.90;;;3.70;;
15679;SDS011;15488;48.114;11.532;2022-09-01T15:02:29;3.88;;;3.67;;
15679;SDS011;15488;48.114;11.532;2022-09-01T15:04:57;3.58;;;3.38;;
15679;SDS011;15488;48.114;11.532;2022-09-01T15:07:24;3.80;;;3.60;;
15679;SDS011;15488;48.114;11.532;2022-09-01T15:09:52;3.50;;;3.30;;
15679;SDS011;15488;48.114;11.532;2022-09-01T15:12:21;3.30;;;3.10;;
15679;SDS011;15488;48.114;11.532;2022-09-01T15:14:48;3.42;;;3.33;;